sensor_id;sensor_type;location;lat;lon;timestamp;P1;durP1;ratioP1;P2;durP2;ratioP2
21905;SDS011;11117;48.644;9.006;2022-07-09T00:00:41;6.80;;;3.93;;
21905;SDS011;11117;48.644;9.006;2022-07-09T00:03:07;15.70;;;4.30;;
21905;SDS011;11117;48.644;9.006;2022-07-09T00:05:32;9.90;;;4.10;;
21905;SDS011;11117;48.644;9.006;2022-07-09T00:07:58;5.83;;;3.70;;
21905;SDS011;11117;48.644;9.006;2022-07-09T00:10:23;8.70;;;4.17;;
21905;SDS011;11117;48.644;9.006;2022-07-09T00:12:49;10.07;;;3.93;;
21905;SDS011;11117;48.644;9.006;2022-07-09T00:15:15;9.03;;;4.20;;
21905;SDS011;11117;48.644;9.006;2022-07-09T00:17:40;9.20;;;3.90;;
21905;SDS011;11117;48.644;9.006;2022-07-09T00:20:06;9.83;;;3.63;;
21905;SDS011;11117;48.644;9.006;2022-07-09T00:22:32;8.40;;;4.43;;
21905;SDS011;11117;48.644;9.006;2022-07-09T00:24:58;9.43;;;4.10;;
21905;SDS011;11117;48.644;9.006;2022-07-09T00:27:24;11.77;;;4.50;;
21905;SDS011;11117;48.644;9.006;2022-07-09T00:29:50;8.50;;;4.00;;
21905;SDS011;11117;48.644;9.006;2022-07-09T00:32:15;9.77;;;4.23;;
21905;SDS011;11117;48.644;9.006;2022-07-09T00:34:41;7.03;;;4.00;;
21905;SDS011;11117;48.644;9.006;2022-07-09T00:37:06;9.00;;;4.20;;
21905;SDS011;11117;48.644;9.006;2022-07-09T00:39:32;8.67;;;3.97;;
21905;SDS011;11117;48.644;9.006;2022-07-09T00:42:04;8.97;;;4.10;;
21905;SDS011;11117;48.644;9.006;2022-07-09T00:44:31;6.67;;;3.70;;
21905;SDS011;11117;48.644;9.006;2022-07-09T00:46:57;6.33;;;3.50;;
21905;SDS011;11117;48.644;9.006;2022-07-09T00:49:22;6.77;;;3.60;;
21905;SDS011;11117;48.644;9.006;2022-07-09T00:51:49;6.63;;;3.90;;
21905;SDS011;11117;48.644;9.006;2022-07-09T00:54:15;12.03;;;4.00;;
21905;SDS011;11117;48.644;9.006;2022-07-09T00:56:41;7.93;;;3.93;;
21905;SDS011;11117;48.644;9.006;2022-07-09T00:59:07;12.90;;;4.00;;
21905;SDS011;11117;48.644;9.006;2022-07-09T01:01:33;11.63;;;4.13;;
21905;SDS011;11117;48.644;9.006;2022-07-09T01:04:00;8.00;;;4.33;;
21905;SDS011;11117;48.644;9.006;2022-07-09T01:06:26;10.47;;;4.07;;
21905;SDS011;11117;48.644;9.006;2022-07-09T01:08:51;9.43;;;3.67;;
21905;SDS011;11117;48.644;9.006;2022-07-09T01:11:18;5.40;;;3.43;;
21905;SDS011;11117;48.644;9.006;2022-07-09T01:13:44;7.57;;;3.77;;
21905;SDS011;11117;48.644;9.006;2022-07-09T01:16:15;10.20;;;4.10;;
21905;SDS011;11117;48.644;9.006;2022-07-09T01:18:44;10.70;;;4.10;;
21905;SDS011;11117;48.644;9.006;2022-07-09T01:21:13;7.67;;;3.90;;
21905;SDS011;11117;48.644;9.006;2022-07-09T01:23:39;11.33;;;4.57;;
21905;SDS011;11117;48.644;9.006;2022-07-09T01:26:05;6.50;;;4.00;;
21905;SDS011;11117;48.644;9.006;2022-07-09T01:28:31;8.43;;;4.20;;
21905;SDS011;11117;48.644;9.006;2022-07-09T01:30:57;7.10;;;3.90;;
21905;SDS011;11117;48.644;9.006;2022-07-09T01:33:23;6.53;;;3.97;;
21905;SDS011;11117;48.644;9.006;2022-07-09T01:35:48;7.43;;;3.80;;
21905;SDS011;11117;48.644;9.006;2022-07-09T01:38:14;6.87;;;3.77;;
21905;SDS011;11117;48.644;9.006;2022-07-09T01:40:39;7.27;;;4.13;;
21905;SDS011;11117;48.644;9.006;2022-07-09T01:43:05;9.27;;;4.07;;
21905;SDS011;11117;48.644;9.006;2022-07-09T01:45:30;6.03;;;3.70;;
21905;SDS011;11117;48.644;9.006;2022-07-09T01:47:56;5.47;;;3.60;;
21905;SDS011;11117;48.644;9.006;2022-07-09T01:50:22;9.57;;;3.97;;
21905;SDS011;11117;48.644;9.006;2022-07-09T01:52:48;10.37;;;3.80;;
21905;SDS011;11117;48.644;9.006;2022-07-09T01:55:13;10.67;;;3.83;;
21905;SDS011;11117;48.644;9.006;2022-07-09T01:57:39;6.70;;;3.50;;
21905;SDS011;11117;48.644;9.006;2022-07-09T02:00:05;9.87;;;3.83;;
21905;SDS011;11117;48.644;9.006;2022-07-09T02:02:31;7.30;;;4.20;;
21905;SDS011;11117;48.644;9.006;2022-07-09T02:04:57;9.90;;;4.20;;
21905;SDS011;11117;48.644;9.006;2022-07-09T02:07:22;8.70;;;4.10;;
21905;SDS011;11117;48.644;9.006;2022-07-09T02:09:48;7.83;;;3.77;;
21905;SDS011;11117;48.644;9.006;2022-07-09T02:12:13;10.47;;;3.87;;
21905;SDS011;11117;48.644;9.006;2022-07-09T02:14:40;10.77;;;4.53;;
21905;SDS011;11117;48.644;9.006;2022-07-09T02:17:06;7.83;;;3.90;;
21905;SDS011;11117;48.644;9.006;2022-07-09T02:19:31;7.30;;;3.70;;
21905;SDS011;11117;48.644;9.006;2022-07-09T02:21:57;12.30;;;4.30;;
21905;SDS011;11117;48.644;9.006;2022-07-09T02:24:22;10.40;;;3.93;;
21905;SDS011;11117;48.644;9.006;2022-07-09T02:26:48;8.00;;;3.80;;
21905;SDS011;11117;48.644;9.006;2022-07-09T02:29:14;9.60;;;4.13;;
21905;SDS011;11117;48.644;9.006;2022-07-09T02:31:39;7.93;;;3.80;;
21905;SDS011;11117;48.644;9.006;2022-07-09T02:34:05;8.67;;;4.30;;
21905;SDS011;11117;48.644;9.006;2022-07-09T02:36:30;9.80;;;4.00;;
21905;SDS011;11117;48.644;9.006;2022-07-09T02:38:56;8.50;;;4.40;;
21905;SDS011;11117;48.644;9.006;2022-07-09T02:41:21;8.10;;;4.40;;
21905;SDS011;11117;48.644;9.006;2022-07-09T02:43:47;7.20;;;4.50;;
21905;SDS011;11117;48.644;9.006;2022-07-09T02:46:13;12.03;;;4.00;;
21905;SDS011;11117;48.644;9.006;2022-07-09T02:48:39;8.13;;;4.50;;
21905;SDS011;11117;48.644;9.006;2022-07-09T02:51:05;7.47;;;4.40;;
21905;SDS011;11117;48.644;9.006;2022-07-09T02:53:30;8.13;;;4.30;;
21905;SDS011;11117;48.644;9.006;2022-07-09T02:55:56;11.97;;;4.57;;
21905;SDS011;11117;48.644;9.006;2022-07-09T02:58:21;7.10;;;3.93;;
21905;SDS011;11117;48.644;9.006;2022-07-09T03:00:47;8.90;;;4.17;;
21905;SDS011;11117;48.644;9.006;2022-07-09T03:03:13;8.57;;;4.30;;
21905;SDS011;11117;48.644;9.006;2022-07-09T03:05:38;6.90;;;4.37;;
21905;SDS011;11117;48.644;9.006;2022-07-09T03:08:04;58.10;;;25.93;;
21905;SDS011;11117;48.644;9.006;2022-07-09T03:10:30;69.90;;;28.77;;
21905;SDS011;11117;48.644;9.006;2022-07-09T03:12:55;17.07;;;9.23;;
21905;SDS011;11117;48.644;9.006;2022-07-09T03:15:21;16.40;;;9.43;;
21905;SDS011;11117;48.644;9.006;2022-07-09T03:17:48;11.90;;;6.00;;
21905;SDS011;11117;48.644;9.006;2022-07-09T03:20:14;9.63;;;6.33;;
21905;SDS011;11117;48.644;9.006;2022-07-09T03:22:40;12.03;;;5.77;;
21905;SDS011;11117;48.644;9.006;2022-07-09T03:25:06;9.90;;;7.47;;
21905;SDS011;11117;48.644;9.006;2022-07-09T03:27:32;12.47;;;6.27;;
21905;SDS011;11117;48.644;9.006;2022-07-09T03:29:59;10.13;;;5.30;;
21905;SDS011;11117;48.644;9.006;2022-07-09T03:32:25;11.77;;;5.03;;
21905;SDS011;11117;48.644;9.006;2022-07-09T03:34:52;8.70;;;4.80;;
21905;SDS011;11117;48.644;9.006;2022-07-09T03:37:18;9.87;;;4.77;;
21905;SDS011;11117;48.644;9.006;2022-07-09T03:39:44;8.70;;;4.57;;
21905;SDS011;11117;48.644;9.006;2022-07-09T03:42:10;10.77;;;4.50;;
21905;SDS011;11117;48.644;9.006;2022-07-09T03:44:36;9.20;;;4.80;;
21905;SDS011;11117;48.644;9.006;2022-07-09T03:47:03;7.63;;;4.37;;
21905;SDS011;11117;48.644;9.006;2022-07-09T03:49:29;7.53;;;4.90;;
21905;SDS011;11117;48.644;9.006;2022-07-09T03:51:55;9.30;;;5.40;;
21905;SDS011;11117;48.644;9.006;2022-07-09T03:54:21;8.93;;;5.53;;
21905;SDS011;11117;48.644;9.006;2022-07-09T03:56:46;9.60;;;5.63;;
21905;SDS011;11117;48.644;9.006;2022-07-09T03:59:12;10.70;;;6.10;;
21905;SDS011;11117;48.644;9.006;2022-07-09T04:01:38;10.53;;;5.30;;
21905;SDS011;11117;48.644;9.006;2022-07-09T04:04:04;9.50;;;6.27;;
21905;SDS011;11117;48.644;9.006;2022-07-09T04:06:30;8.73;;;4.90;;
21905;SDS011;11117;48.644;9.006;2022-07-09T04:08:56;9.60;;;5.00;;
21905;SDS011;11117;48.644;9.006;2022-07-09T04:11:22;9.47;;;5.27;;
21905;SDS011;11117;48.644;9.006;2022-07-09T04:13:48;8.47;;;4.80;;
21905;SDS011;11117;48.644;9.006;2022-07-09T04:16:13;12.07;;;5.30;;
21905;SDS011;11117;48.644;9.006;2022-07-09T04:18:39;12.93;;;4.90;;
21905;SDS011;11117;48.644;9.006;2022-07-09T04:21:05;13.87;;;5.00;;
21905;SDS011;11117;48.644;9.006;2022-07-09T04:23:30;8.33;;;4.83;;
21905;SDS011;11117;48.644;9.006;2022-07-09T04:25:56;9.10;;;4.70;;
21905;SDS011;11117;48.644;9.006;2022-07-09T04:28:21;9.07;;;4.53;;
21905;SDS011;11117;48.644;9.006;2022-07-09T04:30:47;11.03;;;4.50;;
21905;SDS011;11117;48.644;9.006;2022-07-09T04:33:13;7.97;;;4.37;;
21905;SDS011;11117;48.644;9.006;2022-07-09T04:35:39;11.93;;;4.40;;
21905;SDS011;11117;48.644;9.006;2022-07-09T04:38:04;10.50;;;4.33;;
21905;SDS011;11117;48.644;9.006;2022-07-09T04:40:30;8.90;;;4.70;;
21905;SDS011;11117;48.644;9.006;2022-07-09T04:42:56;8.83;;;4.83;;
21905;SDS011;11117;48.644;9.006;2022-07-09T04:45:22;14.53;;;4.53;;
21905;SDS011;11117;48.644;9.006;2022-07-09T04:47:47;7.27;;;4.27;;
21905;SDS011;11117;48.644;9.006;2022-07-09T04:50:13;9.17;;;4.57;;
21905;SDS011;11117;48.644;9.006;2022-07-09T04:52:39;11.13;;;4.57;;
21905;SDS011;11117;48.644;9.006;2022-07-09T04:55:05;7.07;;;3.97;;
21905;SDS011;11117;48.644;9.006;2022-07-09T04:57:31;10.67;;;4.17;;
21905;SDS011;11117;48.644;9.006;2022-07-09T04:59:58;9.17;;;3.90;;
21905;SDS011;11117;48.644;9.006;2022-07-09T05:02:24;8.43;;;4.20;;
21905;SDS011;11117;48.644;9.006;2022-07-09T05:04:50;13.80;;;6.70;;
21905;SDS011;11117;48.644;9.006;2022-07-09T05:07:15;12.53;;;6.37;;
21905;SDS011;11117;48.644;9.006;2022-07-09T05:09:41;11.93;;;5.77;;
21905;SDS011;11117;48.644;9.006;2022-07-09T05:12:07;9.13;;;4.47;;
21905;SDS011;11117;48.644;9.006;2022-07-09T05:14:36;10.13;;;4.27;;
21905;SDS011;11117;48.644;9.006;2022-07-09T05:17:05;6.67;;;4.40;;
21905;SDS011;11117;48.644;9.006;2022-07-09T05:19:31;7.80;;;4.50;;
21905;SDS011;11117;48.644;9.006;2022-07-09T05:21:57;10.43;;;3.63;;
21905;SDS011;11117;48.644;9.006;2022-07-09T05:24:23;7.93;;;3.63;;
21905;SDS011;11117;48.644;9.006;2022-07-09T05:26:48;5.60;;;3.63;;
21905;SDS011;11117;48.644;9.006;2022-07-09T05:29:14;5.03;;;3.17;;
21905;SDS011;11117;48.644;9.006;2022-07-09T05:31:40;9.23;;;3.50;;
21905;SDS011;11117;48.644;9.006;2022-07-09T05:34:06;7.77;;;3.53;;
21905;SDS011;11117;48.644;9.006;2022-07-09T05:36:31;6.63;;;3.50;;
21905;SDS011;11117;48.644;9.006;2022-07-09T05:38:57;7.13;;;3.63;;
21905;SDS011;11117;48.644;9.006;2022-07-09T05:41:23;8.57;;;3.03;;
21905;SDS011;11117;48.644;9.006;2022-07-09T05:43:50;8.30;;;3.23;;
21905;SDS011;11117;48.644;9.006;2022-07-09T05:46:16;5.23;;;3.50;;
21905;SDS011;11117;48.644;9.006;2022-07-09T05:48:42;5.57;;;3.80;;
21905;SDS011;11117;48.644;9.006;2022-07-09T05:51:07;6.10;;;3.55;;
21905;SDS011;11117;48.644;9.006;2022-07-09T05:53:33;9.37;;;3.50;;
21905;SDS011;11117;48.644;9.006;2022-07-09T05:55:58;7.85;;;3.45;;
21905;SDS011;11117;48.644;9.006;2022-07-09T05:58:24;10.93;;;3.22;;
21905;SDS011;11117;48.644;9.006;2022-07-09T06:00:50;5.80;;;3.22;;
21905;SDS011;11117;48.644;9.006;2022-07-09T06:03:15;7.72;;;3.72;;
21905;SDS011;11117;48.644;9.006;2022-07-09T06:05:42;6.47;;;3.30;;
21905;SDS011;11117;48.644;9.006;2022-07-09T06:08:08;8.15;;;2.95;;
21905;SDS011;11117;48.644;9.006;2022-07-09T06:10:33;6.75;;;3.20;;
21905;SDS011;11117;48.644;9.006;2022-07-09T06:12:59;7.38;;;3.20;;
21905;SDS011;11117;48.644;9.006;2022-07-09T06:15:24;7.30;;;3.33;;
21905;SDS011;11117;48.644;9.006;2022-07-09T06:17:50;6.07;;;3.22;;
21905;SDS011;11117;48.644;9.006;2022-07-09T06:20:15;5.35;;;3.20;;
21905;SDS011;11117;48.644;9.006;2022-07-09T06:22:41;6.80;;;3.13;;
21905;SDS011;11117;48.644;9.006;2022-07-09T06:25:07;6.95;;;3.70;;
21905;SDS011;11117;48.644;9.006;2022-07-09T06:27:33;6.47;;;3.05;;
21905;SDS011;11117;48.644;9.006;2022-07-09T06:29:59;6.95;;;3.10;;
21905;SDS011;11117;48.644;9.006;2022-07-09T06:32:25;6.47;;;3.05;;
21905;SDS011;11117;48.644;9.006;2022-07-09T06:34:50;8.82;;;3.00;;
21905;SDS011;11117;48.644;9.006;2022-07-09T06:37:16;5.75;;;2.80;;
21905;SDS011;11117;48.644;9.006;2022-07-09T06:39:41;8.25;;;3.10;;
21905;SDS011;11117;48.644;9.006;2022-07-09T06:42:07;2.92;;;2.47;;
21905;SDS011;11117;48.644;9.006;2022-07-09T06:44:33;7.47;;;2.88;;
21905;SDS011;11117;48.644;9.006;2022-07-09T06:46:59;6.63;;;2.55;;
21905;SDS011;11117;48.644;9.006;2022-07-09T06:49:25;8.15;;;3.22;;
21905;SDS011;11117;48.644;9.006;2022-07-09T06:51:50;6.00;;;2.60;;
21905;SDS011;11117;48.644;9.006;2022-07-09T06:54:16;6.50;;;2.67;;
21905;SDS011;11117;48.644;9.006;2022-07-09T06:56:41;5.97;;;2.70;;
21905;SDS011;11117;48.644;9.006;2022-07-09T06:59:07;7.43;;;2.92;;
21905;SDS011;11117;48.644;9.006;2022-07-09T07:01:32;5.15;;;2.45;;
21905;SDS011;11117;48.644;9.006;2022-07-09T07:03:58;7.47;;;2.63;;
21905;SDS011;11117;48.644;9.006;2022-07-09T07:06:23;6.60;;;2.60;;
21905;SDS011;11117;48.644;9.006;2022-07-09T07:08:49;5.88;;;2.30;;
21905;SDS011;11117;48.644;9.006;2022-07-09T07:11:14;11.40;;;2.30;;
21905;SDS011;11117;48.644;9.006;2022-07-09T07:13:40;6.18;;;2.40;;
21905;SDS011;11117;48.644;9.006;2022-07-09T07:16:06;11.40;;;2.65;;
21905;SDS011;11117;48.644;9.006;2022-07-09T07:18:31;15.73;;;2.90;;
21905;SDS011;11117;48.644;9.006;2022-07-09T07:20:57;9.00;;;2.55;;
21905;SDS011;11117;48.644;9.006;2022-07-09T07:23:22;5.45;;;2.10;;
21905;SDS011;11117;48.644;9.006;2022-07-09T07:25:48;10.35;;;2.40;;
21905;SDS011;11117;48.644;9.006;2022-07-09T07:28:13;5.63;;;2.10;;
21905;SDS011;11117;48.644;9.006;2022-07-09T07:30:39;9.57;;;2.63;;
21905;SDS011;11117;48.644;9.006;2022-07-09T07:33:05;7.35;;;2.17;;
21905;SDS011;11117;48.644;9.006;2022-07-09T07:35:30;5.90;;;2.10;;
21905;SDS011;11117;48.644;9.006;2022-07-09T07:37:56;8.18;;;2.05;;
21905;SDS011;11117;48.644;9.006;2022-07-09T07:40:21;6.90;;;1.85;;
21905;SDS011;11117;48.644;9.006;2022-07-09T07:42:47;3.83;;;1.65;;
21905;SDS011;11117;48.644;9.006;2022-07-09T07:45:12;5.22;;;1.70;;
21905;SDS011;11117;48.644;9.006;2022-07-09T07:47:38;6.18;;;1.67;;
21905;SDS011;11117;48.644;9.006;2022-07-09T07:50:04;6.20;;;1.80;;
21905;SDS011;11117;48.644;9.006;2022-07-09T07:52:30;3.25;;;1.40;;
21905;SDS011;11117;48.644;9.006;2022-07-09T07:54:56;5.95;;;1.90;;
21905;SDS011;11117;48.644;9.006;2022-07-09T07:57:22;5.18;;;1.70;;
21905;SDS011;11117;48.644;9.006;2022-07-09T07:59:49;7.22;;;2.40;;
21905;SDS011;11117;48.644;9.006;2022-07-09T08:02:14;3.70;;;1.60;;
21905;SDS011;11117;48.644;9.006;2022-07-09T08:04:40;6.07;;;1.90;;
21905;SDS011;11117;48.644;9.006;2022-07-09T08:07:05;7.82;;;1.60;;
21905;SDS011;11117;48.644;9.006;2022-07-09T08:09:33;5.45;;;1.60;;
21905;SDS011;11117;48.644;9.006;2022-07-09T08:11:59;8.90;;;1.88;;
21905;SDS011;11117;48.644;9.006;2022-07-09T08:14:26;10.05;;;1.70;;
21905;SDS011;11117;48.644;9.006;2022-07-09T08:16:52;4.10;;;1.40;;
21905;SDS011;11117;48.644;9.006;2022-07-09T08:19:17;5.20;;;1.45;;
21905;SDS011;11117;48.644;9.006;2022-07-09T08:21:43;3.60;;;1.58;;
21905;SDS011;11117;48.644;9.006;2022-07-09T08:24:09;3.72;;;1.58;;
21905;SDS011;11117;48.644;9.006;2022-07-09T08:26:34;7.40;;;1.60;;
21905;SDS011;11117;48.644;9.006;2022-07-09T08:29:00;4.97;;;1.50;;
21905;SDS011;11117;48.644;9.006;2022-07-09T08:31:25;8.75;;;1.73;;
21905;SDS011;11117;48.644;9.006;2022-07-09T08:33:51;4.80;;;1.30;;
21905;SDS011;11117;48.644;9.006;2022-07-09T08:36:17;5.80;;;1.48;;
21905;SDS011;11117;48.644;9.006;2022-07-09T08:38:43;3.30;;;1.45;;
21905;SDS011;11117;48.644;9.006;2022-07-09T08:41:09;3.78;;;1.42;;
21905;SDS011;11117;48.644;9.006;2022-07-09T08:43:35;4.45;;;1.48;;
21905;SDS011;11117;48.644;9.006;2022-07-09T08:46:02;4.60;;;1.58;;
21905;SDS011;11117;48.644;9.006;2022-07-09T08:48:28;3.63;;;1.60;;
21905;SDS011;11117;48.644;9.006;2022-07-09T08:50:58;3.13;;;1.45;;
21905;SDS011;11117;48.644;9.006;2022-07-09T08:53:24;5.00;;;1.55;;
21905;SDS011;11117;48.644;9.006;2022-07-09T08:55:53;2.83;;;1.67;;
21905;SDS011;11117;48.644;9.006;2022-07-09T08:58:22;6.53;;;1.70;;
21905;SDS011;11117;48.644;9.006;2022-07-09T09:00:49;5.60;;;1.77;;
21905;SDS011;11117;48.644;9.006;2022-07-09T09:03:14;5.63;;;1.63;;
21905;SDS011;11117;48.644;9.006;2022-07-09T09:05:41;3.50;;;1.48;;
21905;SDS011;11117;48.644;9.006;2022-07-09T09:08:16;4.00;;;1.40;;
21905;SDS011;11117;48.644;9.006;2022-07-09T09:10:47;3.65;;;1.15;;
21905;SDS011;11117;48.644;9.006;2022-07-09T09:13:13;5.15;;;1.30;;
21905;SDS011;11117;48.644;9.006;2022-07-09T09:15:40;2.53;;;1.20;;
21905;SDS011;11117;48.644;9.006;2022-07-09T09:18:06;2.63;;;1.10;;
21905;SDS011;11117;48.644;9.006;2022-07-09T09:20:31;6.57;;;1.30;;
21905;SDS011;11117;48.644;9.006;2022-07-09T09:22:57;3.33;;;1.35;;
21905;SDS011;11117;48.644;9.006;2022-07-09T09:25:23;2.65;;;1.20;;
21905;SDS011;11117;48.644;9.006;2022-07-09T09:27:55;6.43;;;1.30;;
21905;SDS011;11117;48.644;9.006;2022-07-09T09:30:22;3.15;;;1.10;;
21905;SDS011;11117;48.644;9.006;2022-07-09T09:33:02;3.92;;;1.17;;
21905;SDS011;11117;48.644;9.006;2022-07-09T09:35:29;2.28;;;1.10;;
21905;SDS011;11117;48.644;9.006;2022-07-09T09:38:01;2.45;;;0.90;;
21905;SDS011;11117;48.644;9.006;2022-07-09T09:40:27;6.45;;;1.10;;
21905;SDS011;11117;48.644;9.006;2022-07-09T09:42:55;5.50;;;1.40;;
21905;SDS011;11117;48.644;9.006;2022-07-09T09:45:26;2.78;;;0.90;;
21905;SDS011;11117;48.644;9.006;2022-07-09T09:47:53;3.63;;;0.95;;
21905;SDS011;11117;48.644;9.006;2022-07-09T09:50:25;3.08;;;0.90;;
21905;SDS011;11117;48.644;9.006;2022-07-09T09:52:53;3.55;;;1.10;;
21905;SDS011;11117;48.644;9.006;2022-07-09T09:55:20;4.78;;;0.90;;
21905;SDS011;11117;48.644;9.006;2022-07-09T09:57:46;3.20;;;1.20;;
21905;SDS011;11117;48.644;9.006;2022-07-09T10:00:14;3.25;;;1.10;;
21905;SDS011;11117;48.644;9.006;2022-07-09T10:02:42;2.50;;;1.05;;
21905;SDS011;11117;48.644;9.006;2022-07-09T10:05:09;2.15;;;0.80;;
21905;SDS011;11117;48.644;9.006;2022-07-09T10:07:35;5.20;;;0.98;;
21905;SDS011;11117;48.644;9.006;2022-07-09T10:10:00;1.92;;;1.08;;
21905;SDS011;11117;48.644;9.006;2022-07-09T10:12:33;1.85;;;1.10;;
21905;SDS011;11117;48.644;9.006;2022-07-09T10:14:59;3.53;;;1.50;;
21905;SDS011;11117;48.644;9.006;2022-07-09T10:17:26;2.13;;;0.90;;
21905;SDS011;11117;48.644;9.006;2022-07-09T10:37:14;3.78;;;1.00;;
21905;SDS011;11117;48.644;9.006;2022-07-09T10:57:47;1.42;;;0.95;;
21905;SDS011;11117;48.644;9.006;2022-07-09T11:14:32;1.88;;;1.00;;
21905;SDS011;11117;48.644;9.006;2022-07-09T12:17:05;1.73;;;0.90;;
21905;SDS011;11117;48.644;9.006;2022-07-09T12:30:59;3.75;;;0.95;;
21905;SDS011;11117;48.644;9.006;2022-07-09T12:59:28;2.17;;;1.00;;
21905;SDS011;11117;48.644;9.006;2022-07-09T13:02:55;2.63;;;0.90;;
21905;SDS011;11117;48.644;9.006;2022-07-09T13:09:08;3.70;;;1.38;;
21905;SDS011;11117;48.644;9.006;2022-07-09T13:29:06;1.48;;;0.80;;
21905;SDS011;11117;48.644;9.006;2022-07-09T13:31:51;4.88;;;1.00;;
21905;SDS011;11117;48.644;9.006;2022-07-09T13:38:00;1.80;;;0.98;;
21905;SDS011;11117;48.644;9.006;2022-07-09T13:40:25;2.25;;;1.05;;
21905;SDS011;11117;48.644;9.006;2022-07-09T13:42:51;1.83;;;0.85;;
21905;SDS011;11117;48.644;9.006;2022-07-09T13:45:16;1.98;;;0.85;;
21905;SDS011;11117;48.644;9.006;2022-07-09T13:47:42;2.35;;;0.70;;
21905;SDS011;11117;48.644;9.006;2022-07-09T13:50:08;2.67;;;0.90;;
21905;SDS011;11117;48.644;9.006;2022-07-09T13:52:34;2.22;;;0.85;;
21905;SDS011;11117;48.644;9.006;2022-07-09T13:55:02;0.98;;;0.60;;
21905;SDS011;11117;48.644;9.006;2022-07-09T13:57:28;1.48;;;0.73;;
21905;SDS011;11117;48.644;9.006;2022-07-09T13:59:54;4.10;;;0.90;;
21905;SDS011;11117;48.644;9.006;2022-07-09T14:02:20;1.10;;;0.82;;
21905;SDS011;11117;48.644;9.006;2022-07-09T14:04:45;1.70;;;0.80;;
21905;SDS011;11117;48.644;9.006;2022-07-09T14:07:11;4.00;;;1.15;;
21905;SDS011;11117;48.644;9.006;2022-07-09T14:09:36;2.05;;;0.90;;
21905;SDS011;11117;48.644;9.006;2022-07-09T14:12:02;2.67;;;0.95;;
21905;SDS011;11117;48.644;9.006;2022-07-09T14:14:28;1.67;;;0.88;;
21905;SDS011;11117;48.644;9.006;2022-07-09T14:16:53;1.80;;;0.80;;
21905;SDS011;11117;48.644;9.006;2022-07-09T14:19:19;3.53;;;0.90;;
21905;SDS011;11117;48.644;9.006;2022-07-09T14:21:44;2.28;;;1.00;;
21905;SDS011;11117;48.644;9.006;2022-07-09T14:24:10;3.00;;;1.00;;
21905;SDS011;11117;48.644;9.006;2022-07-09T14:26:36;2.70;;;1.10;;
21905;SDS011;11117;48.644;9.006;2022-07-09T14:29:01;5.00;;;1.13;;
21905;SDS011;11117;48.644;9.006;2022-07-09T14:31:27;1.83;;;1.10;;
21905;SDS011;11117;48.644;9.006;2022-07-09T14:33:52;1.85;;;0.98;;
21905;SDS011;11117;48.644;9.006;2022-07-09T14:36:18;1.20;;;0.98;;
21905;SDS011;11117;48.644;9.006;2022-07-09T14:38:43;3.08;;;1.20;;
21905;SDS011;11117;48.644;9.006;2022-07-09T14:41:09;2.60;;;1.20;;
21905;SDS011;11117;48.644;9.006;2022-07-09T14:43:35;4.47;;;1.00;;
21905;SDS011;11117;48.644;9.006;2022-07-09T14:46:00;2.28;;;1.10;;
21905;SDS011;11117;48.644;9.006;2022-07-09T14:48:26;3.20;;;1.00;;
21905;SDS011;11117;48.644;9.006;2022-07-09T14:50:52;2.33;;;1.13;;
21905;SDS011;11117;48.644;9.006;2022-07-09T14:53:17;3.95;;;1.05;;
21905;SDS011;11117;48.644;9.006;2022-07-09T14:55:43;1.77;;;1.00;;
21905;SDS011;11117;48.644;9.006;2022-07-09T14:58:08;6.85;;;1.30;;
21905;SDS011;11117;48.644;9.006;2022-07-09T15:00:34;2.00;;;0.90;;
21905;SDS011;11117;48.644;9.006;2022-07-09T15:03:00;4.70;;;1.38;;
21905;SDS011;11117;48.644;9.006;2022-07-09T15:05:25;1.13;;;1.00;;
21905;SDS011;11117;48.644;9.006;2022-07-09T15:07:51;2.65;;;1.25;;
21905;SDS011;11117;48.644;9.006;2022-07-09T15:10:16;3.20;;;1.30;;
21905;SDS011;11117;48.644;9.006;2022-07-09T15:12:42;1.98;;;1.20;;
21905;SDS011;11117;48.644;9.006;2022-07-09T15:15:07;1.80;;;1.23;;
21905;SDS011;11117;48.644;9.006;2022-07-09T15:17:33;3.45;;;1.25;;
21905;SDS011;11117;48.644;9.006;2022-07-09T15:19:59;2.15;;;0.93;;
21905;SDS011;11117;48.644;9.006;2022-07-09T15:22:24;2.05;;;1.20;;
21905;SDS011;11117;48.644;9.006;2022-07-09T15:24:50;2.58;;;1.10;;
21905;SDS011;11117;48.644;9.006;2022-07-09T15:27:15;1.35;;;1.20;;
21905;SDS011;11117;48.644;9.006;2022-07-09T15:29:41;2.30;;;1.30;;
21905;SDS011;11117;48.644;9.006;2022-07-09T15:32:07;2.22;;;1.30;;
21905;SDS011;11117;48.644;9.006;2022-07-09T15:34:32;5.03;;;1.30;;
21905;SDS011;11117;48.644;9.006;2022-07-09T15:36:59;3.53;;;1.08;;
21905;SDS011;11117;48.644;9.006;2022-07-09T15:39:24;4.13;;;1.10;;
21905;SDS011;11117;48.644;9.006;2022-07-09T15:41:50;2.15;;;1.02;;
21905;SDS011;11117;48.644;9.006;2022-07-09T15:44:18;5.65;;;1.40;;
21905;SDS011;11117;48.644;9.006;2022-07-09T15:46:44;1.92;;;1.20;;
21905;SDS011;11117;48.644;9.006;2022-07-09T15:49:09;3.05;;;1.30;;
21905;SDS011;11117;48.644;9.006;2022-07-09T15:51:35;2.83;;;1.38;;
21905;SDS011;11117;48.644;9.006;2022-07-09T15:54:00;1.63;;;1.05;;
21905;SDS011;11117;48.644;9.006;2022-07-09T15:56:26;5.70;;;1.30;;
21905;SDS011;11117;48.644;9.006;2022-07-09T15:58:52;3.03;;;1.20;;
21905;SDS011;11117;48.644;9.006;2022-07-09T16:01:17;2.10;;;1.10;;
21905;SDS011;11117;48.644;9.006;2022-07-09T16:03:43;2.33;;;1.20;;
21905;SDS011;11117;48.644;9.006;2022-07-09T16:06:09;3.30;;;1.23;;
21905;SDS011;11117;48.644;9.006;2022-07-09T16:08:34;3.05;;;1.38;;
21905;SDS011;11117;48.644;9.006;2022-07-09T16:11:00;3.63;;;1.40;;
21905;SDS011;11117;48.644;9.006;2022-07-09T16:13:25;2.13;;;1.30;;
21905;SDS011;11117;48.644;9.006;2022-07-09T16:15:51;2.30;;;1.10;;
21905;SDS011;11117;48.644;9.006;2022-07-09T16:18:19;5.28;;;1.30;;
21905;SDS011;11117;48.644;9.006;2022-07-09T16:20:44;5.68;;;1.30;;
21905;SDS011;11117;48.644;9.006;2022-07-09T16:23:10;1.90;;;1.10;;
21905;SDS011;11117;48.644;9.006;2022-07-09T16:25:35;2.33;;;1.20;;
21905;SDS011;11117;48.644;9.006;2022-07-09T16:28:01;5.82;;;1.20;;
21905;SDS011;11117;48.644;9.006;2022-07-09T16:30:27;5.07;;;1.30;;
21905;SDS011;11117;48.644;9.006;2022-07-09T16:32:52;1.90;;;1.20;;
21905;SDS011;11117;48.644;9.006;2022-07-09T16:35:18;2.13;;;1.25;;
21905;SDS011;11117;48.644;9.006;2022-07-09T16:37:43;5.07;;;1.13;;
21905;SDS011;11117;48.644;9.006;2022-07-09T16:40:09;2.30;;;1.30;;
21905;SDS011;11117;48.644;9.006;2022-07-09T16:42:35;5.82;;;1.42;;
21905;SDS011;11117;48.644;9.006;2022-07-09T16:45:00;2.65;;;1.40;;
21905;SDS011;11117;48.644;9.006;2022-07-09T16:47:26;2.35;;;1.48;;
21905;SDS011;11117;48.644;9.006;2022-07-09T16:49:51;1.65;;;1.27;;
21905;SDS011;11117;48.644;9.006;2022-07-09T16:52:17;2.70;;;1.10;;
21905;SDS011;11117;48.644;9.006;2022-07-09T16:54:42;1.73;;;1.20;;
21905;SDS011;11117;48.644;9.006;2022-07-09T16:57:08;3.92;;;1.33;;
21905;SDS011;11117;48.644;9.006;2022-07-09T16:59:34;2.05;;;1.20;;
21905;SDS011;11117;48.644;9.006;2022-07-09T17:01:59;2.50;;;1.38;;
21905;SDS011;11117;48.644;9.006;2022-07-09T17:04:25;2.08;;;1.27;;
21905;SDS011;11117;48.644;9.006;2022-07-09T17:06:51;2.85;;;1.38;;
21905;SDS011;11117;48.644;9.006;2022-07-09T17:09:16;2.72;;;1.45;;
21905;SDS011;11117;48.644;9.006;2022-07-09T17:11:42;4.43;;;1.60;;
21905;SDS011;11117;48.644;9.006;2022-07-09T17:14:07;5.57;;;1.50;;
21905;SDS011;11117;48.644;9.006;2022-07-09T17:16:33;5.47;;;1.63;;
21905;SDS011;11117;48.644;9.006;2022-07-09T17:18:59;4.32;;;1.40;;
21905;SDS011;11117;48.644;9.006;2022-07-09T17:21:24;7.35;;;1.80;;
21905;SDS011;11117;48.644;9.006;2022-07-09T17:23:50;2.53;;;1.70;;
21905;SDS011;11117;48.644;9.006;2022-07-09T17:26:15;5.63;;;1.80;;
21905;SDS011;11117;48.644;9.006;2022-07-09T17:28:41;3.38;;;1.60;;
21905;SDS011;11117;48.644;9.006;2022-07-09T17:31:07;7.22;;;1.70;;